| Date | Time | Temp. (oF) | Dew Point (oF) | Rel. Hum. (%) | Press. (in.) | Wind Dir. | Wind Speed (mph) | Hourly Rainfall (in.) |
|
|---|---|---|---|---|---|---|---|---|---|
| 1 | 08/20 | 00:00 | 69 | 66 | 91 | 30.19 | S | 0 | 0.00 |
| 2 | 08/19 | 23:00 | 70 | 65 | 87 | 30.18 | S | 0 | 0.00 |
| 3 | 08/19 | 22:00 | 72 | 66 | 84 | 30.18 | S | 1 | 0.00 |
| 4 | 08/19 | 21:00 | 75 | 66 | 75 | 30.18 | S | 2 | 0.00 |
| 5 | 08/19 | 20:00 | 80 | 66 | 63 | 30.16 | S | 1 | 0.00 |
| 6 | 08/19 | 19:00 | 81 | 62 | 53 | 30.15 | WSW | 1 | 0.00 |
| 7 | 08/19 | 18:00 | 83 | 61 | 49 | 30.15 | SSW | 4 | 0.00 |
| 8 | 08/19 | 17:00 | 84 | 61 | 47 | 30.15 | NNW | 3 | 0.00 |
| 9 | 08/19 | 16:00 | 83 | 60 | 47 | 30.15 | SSW | 4 | 0.00 |
| 10 | 08/19 | 15:00 | 84 | 61 | 47 | 30.18 | S | 4 | 0.00 |
| 11 | 08/19 | 14:00 | 84 | 63 | 51 | 30.19 | E | 4 | 0.00 |
| 12 | 08/19 | 13:00 | 82 | 64 | 55 | 30.21 | N | 3 | 0.00 |
| 13 | 08/19 | 12:00 | 81 | 65 | 60 | 30.21 | WSW | 3 | 0.00 |
| 14 | 08/19 | 11:00 | 78 | 67 | 70 | 30.22 | E | 2 | 0.00 |
| 15 | 08/19 | 10:00 | 72 | 68 | 88 | 30.23 | N | 3 | 0.00 |
| 16 | 08/19 | 09:00 | 66 | 66 | 100 | 30.23 | ESE | 1 | 0.00 |
| 17 | 08/19 | 08:00 | 62 | 62 | 100 | 30.22 | SSW | 0 | 0.00 |
| 18 | 08/19 | 07:00 | 60 | 59 | 100 | 30.21 | SSW | 0 | 0.00 |
| 19 | 08/19 | 06:00 | 61 | 60 | 100 | 30.19 | SSW | 0 | 0.00 |
| 20 | 08/19 | 05:00 | 62 | 62 | 100 | 30.17 | WNW | 0 | 0.00 |
| 21 | 08/19 | 04:00 | 63 | 62 | 99 | 30.17 | NW | 0 | 0.00 |
| 22 | 08/19 | 03:00 | 63 | 62 | 99 | 30.16 | WNW | 0 | 0.00 |
| 23 | 08/19 | 02:00 | 64 | 63 | 99 | 30.15 | WNW | 1 | 0.00 |
| 24 | 08/19 | 01:00 | 65 | 63 | 96 | 30.15 | SSW | 1 | 0.00 |